createdAt,value
2023-02-12T00:02:15.481Z,55.31
2023-02-12T00:07:18.930Z,54.80
2023-02-12T00:12:22.268Z,55.15
2023-02-12T00:17:27.075Z,55.47
2023-02-12T00:22:31.080Z,54.65
2023-02-12T00:27:34.778Z,55.83
2023-02-12T00:32:39.548Z,54.36
2023-02-12T00:37:42.999Z,55.31
2023-02-12T00:42:46.385Z,54.59
2023-02-12T00:47:51.172Z,54.84
2023-02-12T00:52:55.779Z,54.85
2023-02-12T00:57:59.192Z,54.21
2023-02-12T01:03:04.289Z,54.43
2023-02-12T01:08:07.746Z,54.25
2023-02-12T01:13:13.044Z,54.79
2023-02-12T01:18:17.819Z,54.14
2023-02-12T01:23:21.192Z,54.37
2023-02-12T01:28:24.589Z,53.96
2023-02-12T01:33:29.376Z,53.77
2023-02-12T01:38:32.895Z,54.60
2023-02-12T01:43:36.882Z,54.59
2023-02-12T01:48:43.408Z,54.26
2023-02-12T01:53:49.937Z,53.84
2023-02-12T01:58:55.711Z,53.77
2023-02-12T02:04:03.594Z,53.75
2023-02-12T02:09:07.295Z,54.41
2023-02-12T02:14:28.086Z,54.30
2023-02-12T02:19:43.507Z,53.72
2023-02-12T02:25:07.071Z,54.25
2023-02-12T02:30:26.900Z,54.09
2023-02-12T02:35:34.556Z,54.25
2023-02-12T02:40:41.676Z,53.69
2023-02-12T02:45:48.859Z,53.90
2023-02-12T02:50:55.776Z,53.60
2023-02-12T02:56:01.517Z,54.02
2023-02-12T03:01:07.749Z,53.04
2023-02-12T03:06:14.082Z,53.70
2023-02-12T03:11:22.360Z,53.39
2023-02-12T03:16:29.434Z,53.36
2023-02-12T03:21:35.380Z,53.66
2023-02-12T03:26:45.047Z,53.53
2023-02-12T03:32:00.335Z,54.59
2023-02-12T03:37:08.704Z,53.85
2023-02-12T03:42:17.094Z,53.90
2023-02-12T03:47:28.570Z,54.09
2023-02-12T03:52:32.022Z,53.90
2023-02-12T03:57:39.701Z,53.29
2023-02-12T04:02:45.161Z,54.15
2023-02-12T04:07:48.741Z,53.54
2023-02-12T04:12:56.286Z,54.24
2023-02-12T04:18:07.617Z,53.99
2023-02-12T04:23:18.672Z,53.95
2023-02-12T04:28:30.612Z,53.80
2023-02-12T04:33:37.265Z,53.94
2023-02-12T04:38:43.512Z,53.47
2023-02-12T04:43:46.928Z,53.51
2023-02-12T04:48:55.330Z,53.12
2023-02-12T04:53:58.676Z,54.03
2023-02-12T04:59:02.034Z,53.82
2023-02-12T05:04:07.464Z,54.34
2023-02-12T05:09:15.191Z,53.71
2023-02-12T05:14:18.577Z,53.85
2023-02-12T05:19:23.334Z,53.93
2023-02-12T05:24:27.092Z,53.47
2023-02-12T05:29:30.475Z,53.32
2023-02-12T05:34:35.670Z,53.71
2023-02-12T05:39:39.074Z,54.06
2023-02-12T05:44:42.464Z,53.78
2023-02-12T05:49:47.259Z,53.54
2023-02-12T05:54:51.389Z,53.38
2023-02-12T05:59:54.829Z,52.47
2023-02-12T06:04:59.609Z,53.45
2023-02-12T06:10:03.049Z,53.38
2023-02-12T06:15:06.831Z,53.00
2023-02-12T06:20:11.997Z,52.95
2023-02-12T06:25:15.356Z,52.83
2023-02-12T06:30:18.974Z,52.85
2023-02-12T06:35:23.726Z,53.02
2023-02-12T06:40:27.083Z,52.58
2023-02-12T06:45:30.455Z,53.04
2023-02-12T06:50:35.292Z,52.78
2023-02-12T06:55:38.664Z,52.74
2023-02-12T07:00:42.019Z,52.54
2023-02-12T07:05:48.373Z,52.58
2023-02-12T07:10:51.782Z,52.89
2023-02-12T07:15:55.491Z,52.63
2023-02-12T07:21:00.611Z,52.32
2023-02-12T07:26:06.708Z,52.48
2023-02-12T07:31:11.460Z,52.61
2023-02-12T07:36:17.888Z,52.51
2023-02-12T07:41:23.114Z,53.03
2023-02-12T07:46:29.946Z,53.10
2023-02-12T07:51:35.696Z,52.47
2023-02-12T07:56:40.280Z,52.33
2023-02-12T08:01:45.096Z,52.72
2023-02-12T08:06:50.971Z,52.83
2023-02-12T08:11:54.578Z,52.39
2023-02-12T08:16:57.982Z,52.11
2023-02-12T08:22:03.298Z,52.73
2023-02-12T08:27:06.832Z,52.89
2023-02-12T08:32:14.143Z,52.82
2023-02-12T08:37:18.976Z,52.03
2023-02-12T08:42:23.007Z,52.32
2023-02-12T08:47:26.479Z,52.79
2023-02-12T08:52:31.224Z,53.23
2023-02-12T08:57:35.491Z,52.65
2023-02-12T09:02:38.904Z,53.24
2023-02-12T09:07:43.687Z,52.63
2023-02-12T09:12:47.038Z,52.61
2023-02-12T09:17:50.410Z,52.53
2023-02-12T09:22:55.225Z,53.10
2023-02-12T09:27:58.610Z,52.95
2023-02-12T09:33:02.015Z,53.19
2023-02-12T09:38:07.172Z,52.89
2023-02-12T09:43:19.605Z,53.36
2023-02-12T09:48:38.128Z,53.42
2023-02-12T09:53:45.965Z,52.53
2023-02-12T09:58:52.768Z,52.95
2023-02-12T10:03:56.825Z,53.28
2023-02-12T10:09:12.670Z,53.36
2023-02-12T10:14:37.909Z,53.61
2023-02-12T10:20:06.662Z,52.85
2023-02-12T10:25:20.090Z,53.65
2023-02-12T10:30:26.977Z,53.32
2023-02-12T10:35:30.501Z,53.70
2023-02-12T10:40:39.130Z,54.17
2023-02-12T10:45:44.864Z,53.31
2023-02-12T10:50:59.312Z,53.67
2023-02-12T10:56:13.882Z,52.42
2023-02-12T11:01:19.504Z,53.78
2023-02-12T11:06:24.656Z,53.86
2023-02-12T11:11:31.378Z,52.68
2023-02-12T11:16:36.329Z,53.72
2023-02-12T11:21:39.753Z,53.10
2023-02-12T11:26:44.555Z,53.03
2023-02-12T11:32:02.729Z,52.34
2023-02-12T11:37:06.337Z,53.06
2023-02-12T11:42:17.857Z,53.21
2023-02-12T11:47:23.288Z,53.03
2023-02-12T11:52:30.115Z,52.60
2023-02-12T11:57:38.541Z,53.19
2023-02-12T12:02:44.407Z,53.29
2023-02-12T12:07:51.618Z,54.14
2023-02-12T12:12:58.372Z,52.96
2023-02-12T12:18:23.279Z,53.00
2023-02-12T12:23:32.941Z,53.29
2023-02-12T12:28:42.616Z,53.00
2023-02-12T12:33:48.570Z,54.33
2023-02-12T12:38:58.025Z,54.05
2023-02-12T12:44:15.794Z,53.25
2023-02-12T12:49:43.905Z,54.14
2023-02-12T12:54:58.454Z,54.49
2023-02-12T13:00:15.071Z,53.95
2023-02-12T13:06:00.215Z,54.29
2023-02-12T13:11:08.336Z,53.57
2023-02-12T13:16:19.702Z,54.53
2023-02-12T13:21:33.966Z,54.10
2023-02-12T13:26:44.849Z,54.29
2023-02-12T13:31:52.176Z,53.81
2023-02-12T13:36:56.654Z,53.83
2023-02-12T13:42:06.867Z,54.31
2023-02-12T13:47:19.788Z,54.38
2023-02-12T13:52:29.061Z,55.03
2023-02-12T13:57:32.439Z,54.03
2023-02-12T14:02:49.480Z,54.62
2023-02-12T14:07:54.184Z,55.33
2023-02-12T14:13:00.998Z,54.81
2023-02-12T14:18:32.751Z,54.89
2023-02-12T14:23:36.123Z,55.71
2023-02-12T14:28:57.971Z,54.96
2023-02-12T14:34:40.100Z,55.77
2023-02-12T14:39:43.467Z,54.90
2023-02-12T14:44:49.320Z,54.90
2023-02-12T14:49:56.042Z,56.03
2023-02-12T14:55:00.896Z,55.61
2023-02-12T15:00:14.209Z,55.47
2023-02-12T15:05:22.334Z,55.19
2023-02-12T15:10:30.187Z,55.43
2023-02-12T15:15:35.570Z,55.74
2023-02-12T15:20:46.405Z,56.01
2023-02-12T15:25:52.040Z,55.36
2023-02-12T15:30:57.405Z,56.15
2023-02-12T15:36:03.075Z,55.82
2023-02-12T15:41:07.059Z,56.16
2023-02-12T15:46:18.119Z,55.60
2023-02-12T15:51:30.710Z,56.29
2023-02-12T15:56:36.445Z,56.48
2023-02-12T16:01:40.838Z,56.05
2023-02-12T16:06:45.659Z,55.34
2023-02-12T16:11:49.735Z,56.34
2023-02-12T16:16:55.020Z,55.73
2023-02-12T16:22:02.435Z,55.75
2023-02-12T16:27:09.834Z,55.67
2023-02-12T16:32:29.145Z,55.66
2023-02-12T16:37:51.140Z,56.13
2023-02-12T16:43:08.039Z,55.56
2023-02-12T16:48:23.464Z,55.24
2023-02-12T16:53:43.227Z,56.31
2023-02-12T16:58:50.045Z,55.91
2023-02-12T17:03:54.104Z,55.91
2023-02-12T17:08:57.848Z,55.97
2023-02-12T17:14:02.713Z,56.28
2023-02-12T17:19:06.217Z,55.58
2023-02-12T17:24:16.124Z,55.96
2023-02-12T17:29:21.876Z,56.28
2023-02-12T17:34:26.100Z,56.69
2023-02-12T17:39:30.112Z,56.44
2023-02-12T17:44:35.070Z,56.08
2023-02-12T17:49:40.099Z,56.37
2023-02-12T17:54:45.958Z,56.10
2023-02-12T17:59:50.793Z,56.28
2023-02-12T18:04:54.313Z,55.56
2023-02-12T18:09:57.718Z,55.82
2023-02-12T18:15:04.697Z,55.67
2023-02-12T18:20:09.789Z,56.59
2023-02-12T18:25:13.337Z,55.96
2023-02-12T18:30:18.555Z,55.81
2023-02-12T18:35:22.098Z,55.42
2023-02-12T18:40:25.706Z,55.53
2023-02-12T18:45:30.594Z,56.24
2023-02-12T18:50:34.133Z,56.38
2023-02-12T18:55:39.502Z,56.63
2023-02-12T19:00:44.404Z,56.48
2023-02-12T19:05:47.921Z,55.96
2023-02-12T19:10:51.589Z,56.36
2023-02-12T19:15:56.550Z,56.47
2023-02-12T19:21:00.038Z,55.46
2023-02-12T19:26:05.246Z,56.15
2023-02-12T19:31:15.480Z,56.12
2023-02-12T19:36:20.891Z,56.50
2023-02-12T19:41:26.623Z,56.52
2023-02-12T19:46:32.420Z,56.49
2023-02-12T19:51:37.793Z,56.01
2023-02-12T19:56:41.939Z,56.44
2023-02-12T20:01:47.260Z,56.22
2023-02-12T20:06:51.418Z,56.68
2023-02-12T20:11:55.254Z,56.75
2023-02-12T20:17:00.775Z,55.90
2023-02-12T20:22:04.850Z,56.55
2023-02-12T20:27:08.591Z,55.87
2023-02-12T20:32:13.424Z,56.77
2023-02-12T20:37:18.337Z,57.15
2023-02-12T20:42:21.780Z,55.73
2023-02-12T20:47:29.181Z,56.21
2023-02-12T20:52:33.019Z,56.75
2023-02-12T20:57:36.543Z,55.76
2023-02-12T21:02:41.320Z,56.73
2023-02-12T21:07:45.635Z,56.57
2023-02-12T21:12:49.011Z,56.19
2023-02-12T21:17:53.791Z,56.10
2023-02-12T21:22:57.152Z,56.20
2023-02-12T21:28:00.495Z,56.98
2023-02-12T21:33:05.370Z,56.42
2023-02-12T21:38:08.748Z,56.16
2023-02-12T21:43:12.120Z,56.66
2023-02-12T21:48:16.899Z,56.32
2023-02-12T21:53:22.473Z,56.39
2023-02-12T21:58:25.924Z,56.03
2023-02-12T22:03:30.712Z,56.72
2023-02-12T22:08:34.350Z,55.76
2023-02-12T22:13:39.916Z,56.37
2023-02-12T22:18:45.354Z,57.12
2023-02-12T22:23:48.774Z,56.67
2023-02-12T22:28:53.849Z,56.73
2023-02-12T22:34:00.147Z,56.41
2023-02-12T22:39:03.590Z,56.58
2023-02-12T22:44:07.065Z,56.28
2023-02-12T22:49:12.018Z,56.47
2023-02-12T22:54:17.267Z,56.67
2023-02-12T22:59:20.654Z,56.18
2023-02-12T23:04:25.422Z,57.09
2023-02-12T23:09:28.915Z,56.75
2023-02-12T23:14:34.006Z,56.62
2023-02-12T23:19:38.793Z,56.49
2023-02-12T23:24:42.183Z,56.46
2023-02-12T23:29:45.597Z,56.04
2023-02-12T23:34:50.399Z,57.43
2023-02-12T23:39:53.796Z,56.96
2023-02-12T23:44:57.862Z,56.77
2023-02-12T23:50:02.707Z,56.60
2023-02-12T23:55:06.713Z,56.12
